Time;durP1;ratioP1;P1;durP2;ratioP2;P2;SDS_P1;SDS_P2;PMS_P1;PMS_P2;Temp;Humidity;BMP_temperature;BMP_pressure;BME280_temperature;BME280_humidity;BME280_pressure;Samples;Min_cycle;Max_cycle;Signal;HPM_P1;HPM_P2
2022/02/24 05:04:33;;;;;;;6.47;3.03;;;-1.00;96.30;;;;;;4952714;29;20980;-76
2022/02/24 05:06:58;;;;;;;9.67;5.07;;;-0.90;96.30;;;;;;4953103;28;20423;-79
2022/02/24 05:09:25;;;;;;;13.27;6.50;;;-1.00;96.30;;;;;;4955176;28;20202;-78
2022/02/24 05:11:51;;;;;;;20.10;9.53;;;-1.10;96.30;;;;;;4954917;28;20198;-78
2022/02/24 05:14:17;;;;;;;5.37;2.60;;;-1.10;96.30;;;;;;4956009;28;20406;-78
2022/02/24 05:16:42;;;;;;;8.90;3.30;;;-1.20;96.30;;;;;;4956257;29;20979;-77
2022/02/24 05:19:08;;;;;;;6.30;2.97;;;-1.20;96.30;;;;;;4956757;28;20207;-78
2022/02/24 05:50:07;;;;;;;28.90;14.43;;;-0.80;96.30;;;;;;4991771;23;20512;-78
2022/02/24 05:52:34;;;;;;;10.00;4.43;;;-0.80;96.30;;;;;;4933170;29;20901;-79
2022/02/24 05:55:00;;;;;;;5.63;3.57;;;-0.90;96.30;;;;;;4933327;29;20415;-77
2022/02/24 05:57:26;;;;;;;9.10;5.57;;;-0.90;96.30;;;;;;4933098;29;20956;-77
2022/02/24 05:59:52;;;;;;;14.53;5.53;;;-1.00;96.30;;;;;;4934330;29;20283;-77
2022/02/24 06:02:18;;;;;;;18.90;10.17;;;-1.20;96.30;;;;;;4932768;29;20431;-78
2022/02/24 06:04:43;;;;;;;10.53;5.40;;;-1.20;96.30;;;;;;4933798;29;20811;-79
2022/02/24 06:07:09;;;;;;;6.90;2.90;;;-1.30;96.30;;;;;;4934340;29;20581;-78
2022/02/24 06:09:34;;;;;;;5.33;2.60;;;-1.30;96.30;;;;;;4933195;29;20180;-78
2022/02/24 06:12:47;;;;;;;7.97;2.67;;;-1.00;96.30;;;;;;5405236;23;21592;-78
2022/02/24 07:06:12;;;;;;;6.17;2.90;;;9.50;91.00;;;;;;4992238;28;20424;-78
2022/02/24 07:08:39;;;;;;;6.43;2.90;;;10.10;89.50;;;;;;4987361;28;20453;-80
2022/02/24 07:11:04;;;;;;;5.97;3.10;;;10.50;85.70;;;;;;4981907;28;20463;-80
2022/02/24 07:13:30;;;;;;;6.00;3.83;;;9.70;87.10;;;;;;4981655;28;20449;-79
2022/02/24 07:15:56;;;;;;;8.93;3.97;;;8.60;90.20;;;;;;4845429;28;20244;-79
2022/02/24 07:18:21;;;;;;;6.97;4.20;;;8.20;94.30;;;;;;4941429;29;20688;-80
2022/02/24 07:20:47;;;;;;;7.40;2.43;;;8.60;94.00;;;;;;4963870;28;20226;-80
2022/02/24 07:23:13;;;;;;;4.50;2.30;;;9.50;90.30;;;;;;4963960;28;20171;-79
2022/02/24 07:25:39;;;;;;;5.53;2.80;;;9.90;87.90;;;;;;4962470;29;20179;-79
2022/02/24 07:28:05;;;;;;;11.37;6.03;;;9.60;87.70;;;;;;4962029;28;20418;-79
2022/02/24 07:30:30;;;;;;;12.10;7.93;;;8.80;89.70;;;;;;4961121;28;20423;-79
2022/02/24 07:32:56;;;;;;;9.23;5.30;;;7.60;94.40;;;;;;4960759;28;20442;-80
2022/02/24 07:35:22;;;;;;;10.60;4.50;;;7.00;95.80;;;;;;4958997;28;20171;-79
2022/02/24 07:37:47;;;;;;;5.20;3.20;;;6.50;96.30;;;;;;4956490;28;20210;-78
2022/02/24 07:40:13;;;;;;;6.40;3.20;;;5.90;96.30;;;;;;4954170;29;20207;-78
2022/02/24 07:42:38;;;;;;;6.63;4.30;;;5.60;96.30;;;;;;4955469;28;20197;-77
2022/02/24 07:45:06;;;;;;;12.30;5.40;;;5.50;96.30;;;;;;4954131;29;20186;-77
2022/02/24 07:47:31;;;;;;;10.67;4.60;;;5.20;96.30;;;;;;4954933;28;20524;-78
2022/02/24 07:49:57;;;;;;;12.23;7.00;;;5.30;96.30;;;;;;4955246;28;20430;-77
2022/02/24 07:52:22;;;;;;;1.60;1.00;;;5.40;96.30;;;;;;4940947;29;20229;-77
2022/02/24 07:54:48;;;;;;;3.00;1.47;;;5.60;96.30;;;;;;4936167;28;20614;-77
2022/02/24 07:57:14;;;;;;;3.07;1.07;;;5.70;96.30;;;;;;4947083;29;20237;-78
2022/02/24 07:59:39;;;;;;;2.10;1.07;;;5.80;96.30;;;;;;4954733;28;20342;-77
2022/02/24 08:02:05;;;;;;;1.20;0.90;;;5.80;96.30;;;;;;4955039;28;20194;-78
2022/02/24 08:04:31;;;;;;;3.50;1.20;;;6.00;96.30;;;;;;4952345;28;20187;-78
2022/02/24 08:06:57;;;;;;;2.73;1.10;;;6.00;96.30;;;;;;4934403;29;20167;-77
2022/02/24 08:09:22;;;;;;;4.40;1.13;;;6.20;96.30;;;;;;4934927;29;20455;-77
2022/02/24 08:12:38;;;;;;;2.63;0.73;;;6.30;96.30;;;;;;4934414;29;20286;-77
2022/02/24 08:14:36;;;;;;;1.60;0.87;;;6.40;96.30;;;;;;4935239;29;20258;-78
2022/02/24 08:17:01;;;;;;;3.00;1.00;;;6.30;96.30;;;;;;4935560;29;20442;-78
2022/02/24 08:19:27;;;;;;;2.77;0.90;;;6.30;96.30;;;;;;4933619;29;20969;-77
2022/02/24 08:21:52;;;;;;;2.23;1.00;;;6.20;96.30;;;;;;4934153;29;20187;-77
2022/02/24 08:24:18;;;;;;;2.20;1.07;;;6.30;96.30;;;;;;4935497;29;20650;-78
2022/02/24 08:26:43;;;;;;;4.53;1.23;;;6.40;96.30;;;;;;4935450;29;20176;-77
2022/02/24 08:29:09;;;;;;;1.37;0.90;;;6.50;96.30;;;;;;4934919;29;20184;-77
2022/02/24 08:31:34;;;;;;;3.47;1.27;;;6.60;96.30;;;;;;4935357;29;20199;-78
2022/02/24 08:34:00;;;;;;;5.00;1.20;;;6.50;96.30;;;;;;4935053;29;20187;-77
2022/02/24 08:36:25;;;;;;;5.17;1.60;;;6.60;96.30;;;;;;4934180;29;20547;-76
2022/02/24 08:38:51;;;;;;;2.13;1.00;;;6.70;96.30;;;;;;4934432;29;20203;-77
2022/02/24 08:41:16;;;;;;;3.43;1.13;;;6.70;96.30;;;;;;4934538;29;20199;-77
2022/02/24 08:43:42;;;;;;;4.83;1.53;;;6.90;96.30;;;;;;4933734;29;20226;-77
2022/02/24 08:46:07;;;;;;;3.03;0.90;;;6.80;96.30;;;;;;4939846;29;20209;-77
2022/02/24 08:48:33;;;;;;;2.80;1.30;;;7.00;96.30;;;;;;4953159;28;20186;-75
2022/02/24 08:50:59;;;;;;;1.83;1.03;;;6.80;96.30;;;;;;4946893;29;20398;-75
2022/02/24 08:53:24;;;;;;;2.70;1.10;;;6.90;96.30;;;;;;4953822;28;20486;-76
2022/02/24 08:55:50;;;;;;;6.43;1.50;;;6.90;96.30;;;;;;4936217;28;20194;-75
2022/02/24 08:58:16;;;;;;;3.77;1.20;;;6.80;96.30;;;;;;4934481;29;20179;-77
2022/02/24 09:00:47;;;;;;;3.00;1.47;;;6.90;96.30;;;;;;4934871;29;20326;-75
2022/02/24 09:03:16;;;;;;;5.53;1.47;;;6.90;96.30;;;;;;4934951;29;20763;-75
2022/02/24 09:05:42;;;;;;;1.40;1.17;;;6.90;96.30;;;;;;4934919;29;21138;-75
2022/02/24 09:08:08;;;;;;;4.30;1.17;;;7.00;96.30;;;;;;4934248;29;20442;-75
2022/02/24 09:10:33;;;;;;;3.40;1.80;;;7.20;96.30;;;;;;4934822;29;20510;-75
2022/02/24 09:13:00;;;;;;;4.03;1.30;;;7.10;96.30;;;;;;4935036;29;20215;-75
2022/02/24 09:15:26;;;;;;;2.07;0.80;;;7.20;96.30;;;;;;4934820;29;20437;-75
2022/02/24 09:17:52;;;;;;;2.90;1.50;;;7.30;96.30;;;;;;4932942;29;20180;-75
2022/02/24 09:20:18;;;;;;;4.37;2.20;;;7.40;96.30;;;;;;4934703;29;20518;-76
2022/02/24 09:22:43;;;;;;;4.90;1.70;;;7.60;96.30;;;;;;4933711;29;20186;-77
2022/02/24 09:25:09;;;;;;;2.83;1.30;;;7.70;96.30;;;;;;4933171;29;20175;-75
2022/02/24 09:27:36;;;;;;;3.33;1.30;;;7.80;96.30;;;;;;4932856;29;20175;-77
2022/02/24 09:30:03;;;;;;;2.93;1.20;;;8.20;96.30;;;;;;4939405;28;20180;-76
2022/02/24 09:32:29;;;;;;;3.30;1.50;;;9.00;96.30;;;;;;4934487;29;20526;-75
2022/02/24 09:34:54;;;;;;;4.20;1.33;;;9.40;96.30;;;;;;4944697;29;20598;-75
2022/02/24 09:37:20;;;;;;;6.53;1.53;;;9.80;95.90;;;;;;4940871;29;20179;-76
2022/02/24 09:39:45;;;;;;;2.50;1.37;;;9.90;94.40;;;;;;4935692;28;20196;-77
2022/02/24 09:42:11;;;;;;;1.93;1.40;;;9.80;93.90;;;;;;4945090;29;20274;-79
2022/02/24 09:44:37;;;;;;;3.80;1.43;;;9.90;94.30;;;;;;4938660;29;20204;-79
2022/02/24 09:47:04;;;;;;;4.07;1.50;;;9.60;95.40;;;;;;4955472;29;20422;-77
2022/02/24 09:49:30;;;;;;;8.03;2.00;;;9.30;96.30;;;;;;4955039;29;20825;-79
2022/02/24 09:51:55;;;;;;;3.73;1.40;;;9.40;95.40;;;;;;4939148;28;20527;-78
2022/02/24 09:54:21;;;;;;;3.20;1.23;;;9.20;96.30;;;;;;4938006;29;20427;-78
2022/02/24 09:56:47;;;;;;;3.23;1.87;;;9.10;96.30;;;;;;4937503;29;20179;-78
2022/02/24 09:59:14;;;;;;;5.07;1.60;;;8.80;96.30;;;;;;4939242;29;20204;-78
2022/02/24 10:01:41;;;;;;;4.53;1.40;;;8.70;96.30;;;;;;4938070;29;20203;-78
2022/02/24 10:04:06;;;;;;;5.80;1.67;;;8.60;96.30;;;;;;4945926;29;20427;-79
2022/02/24 10:06:43;;;;;;;2.63;1.40;;;8.60;96.30;;;;;;4955994;29;20425;-78
2022/02/24 10:09:11;;;;;;;3.00;1.40;;;8.70;96.30;;;;;;4938130;29;20541;-78
2022/02/24 10:11:41;;;;;;;5.73;1.40;;;8.90;96.30;;;;;;4945475;29;20439;-78
2022/02/24 10:14:09;;;;;;;3.70;1.30;;;8.70;96.30;;;;;;4942085;28;20434;-78
2022/02/24 10:17:04;;;;;;;3.93;1.20;;;8.70;96.30;;;;;;4959551;28;20418;-78
2022/02/24 10:19:35;;;;;;;6.40;1.40;;;8.70;96.30;;;;;;4958081;29;20505;-79
2022/02/24 10:22:09;;;;;;;2.53;1.13;;;8.40;96.30;;;;;;4957023;29;20438;-79
2022/02/24 10:24:35;;;;;;;1.97;1.00;;;8.40;96.30;;;;;;4958665;28;20421;-78
2022/02/24 10:27:21;;;;;;;3.57;1.40;;;8.50;96.30;;;;;;4956505;28;20410;-78
2022/02/24 10:30:22;;;;;;;4.70;1.70;;;8.60;96.30;;;;;;4939219;29;20661;-78
2022/02/24 10:32:52;;;;;;;3.97;1.80;;;8.90;96.30;;;;;;4939579;29;20415;-78
2022/02/24 10:35:40;;;;;;;6.53;1.37;;;9.40;96.30;;;;;;4937587;29;20410;-77
2022/02/24 10:38:08;;;;;;;1.47;1.10;;;9.60;96.30;;;;;;4936535;29;20505;-78
2022/02/24 10:40:39;;;;;;;4.27;1.70;;;9.60;96.30;;;;;;4937326;29;20440;-76
2022/02/24 10:43:16;;;;;;;4.67;1.50;;;9.80;96.30;;;;;;4937207;29;20408;-76
2022/02/24 10:45:43;;;;;;;1.83;1.17;;;9.50;96.30;;;;;;4935852;29;20411;-77
2022/02/24 10:48:09;;;;;;;3.70;1.07;;;9.50;96.30;;;;;;4934316;29;21159;-78
2022/02/24 10:51:03;;;;;;;4.17;1.20;;;9.40;96.30;;;;;;4935826;29;20524;-78
2022/02/24 10:53:34;;;;;;;5.43;1.70;;;9.30;96.30;;;;;;4937208;29;20479;-77
2022/02/24 10:56:06;;;;;;;5.57;1.37;;;9.30;96.30;;;;;;4937123;29;20390;-76
2022/02/24 10:58:40;;;;;;;4.00;1.23;;;9.30;96.30;;;;;;4936616;29;20534;-78
2022/02/24 11:01:20;;;;;;;3.77;1.30;;;9.10;96.30;;;;;;4937324;29;20439;-76
2022/02/24 11:03:48;;;;;;;1.90;1.20;;;9.10;96.30;;;;;;4936347;29;20400;-75
2022/02/24 11:06:14;;;;;;;2.50;1.27;;;9.10;96.30;;;;;;4936890;29;20419;-76
2022/02/24 11:08:42;;;;;;;3.10;1.10;;;8.90;96.30;;;;;;4936266;29;20436;-76
2022/02/24 11:11:08;;;;;;;5.73;1.20;;;9.20;96.30;;;;;;4936817;29;20458;-76
2022/02/24 11:13:35;;;;;;;4.20;1.00;;;9.20;96.30;;;;;;4935509;29;20853;-76
2022/02/24 11:16:01;;;;;;;1.80;1.10;;;9.10;96.30;;;;;;4936739;29;20451;-80
2022/02/24 11:18:27;;;;;;;3.87;1.13;;;9.00;96.30;;;;;;4934738;29;20428;-76
2022/02/24 11:20:55;;;;;;;3.77;0.97;;;9.00;96.30;;;;;;4936469;29;20432;-78
2022/02/24 11:23:22;;;;;;;7.60;1.60;;;9.00;96.30;;;;;;4936924;29;20411;-79
2022/02/24 11:26:03;;;;;;;3.30;1.07;;;9.00;96.30;;;;;;4936998;29;20412;-78
2022/02/24 11:28:43;;;;;;;6.00;1.10;;;9.20;96.30;;;;;;4935128;29;20959;-78
2022/02/24 11:31:23;;;;;;;2.57;1.13;;;9.10;96.30;;;;;;4936497;29;20446;-79
2022/02/24 11:33:53;;;;;;;4.40;0.97;;;9.10;96.30;;;;;;4935598;29;20470;-78
2022/02/24 11:36:20;;;;;;;2.47;0.90;;;9.00;96.30;;;;;;4936733;29;20448;-79
2022/02/24 11:39:05;;;;;;;2.60;1.23;;;8.80;96.30;;;;;;4936732;29;20490;-79
2022/02/24 11:41:30;;;;;;;3.70;1.23;;;8.80;96.30;;;;;;4937248;29;20431;-79
2022/02/24 11:43:56;;;;;;;2.97;1.50;;;9.00;96.30;;;;;;4935760;29;20419;-78
2022/02/24 11:46:22;;;;;;;2.23;0.80;;;9.00;96.30;;;;;;4937265;29;20176;-78
2022/02/24 11:48:48;;;;;;;2.37;1.00;;;9.00;96.30;;;;;;4936268;29;20535;-79
2022/02/24 11:51:19;;;;;;;3.60;1.20;;;9.10;96.30;;;;;;4950334;29;20216;-79
2022/02/24 11:53:48;;;;;;;4.10;1.13;;;9.10;96.30;;;;;;4954462;29;20433;-78
2022/02/24 11:56:16;;;;;;;4.87;1.33;;;9.10;96.30;;;;;;4953781;28;20421;-79
2022/02/24 11:58:42;;;;;;;3.20;1.07;;;9.00;96.30;;;;;;4934653;29;20451;-79
2022/02/24 12:01:28;;;;;;;3.70;1.40;;;9.00;96.30;;;;;;4946165;29;20470;-79
2022/02/24 12:03:58;;;;;;;2.20;0.97;;;9.10;96.30;;;;;;4945937;29;20403;-79
2022/02/24 12:06:49;;;;;;;2.40;1.00;;;9.20;96.30;;;;;;4937397;29;20442;-79
2022/02/24 12:09:14;;;;;;;1.63;0.90;;;9.20;96.30;;;;;;4937742;29;20434;-79
2022/02/24 12:12:01;;;;;;;2.43;0.93;;;9.10;96.30;;;;;;4954747;28;20648;-79
2022/02/24 12:14:27;;;;;;;2.30;0.83;;;9.10;96.30;;;;;;4954609;28;20527;-78
2022/02/24 12:17:04;;;;;;;2.80;1.00;;;9.00;96.30;;;;;;4954267;28;20426;-78
2022/02/24 12:20:00;;;;;;;2.90;1.20;;;8.90;96.30;;;;;;4954190;28;20268;-78
2022/02/24 12:22:36;;;;;;;3.40;1.03;;;8.90;96.30;;;;;;4954268;29;20442;-77
2022/02/24 12:25:14;;;;;;;1.33;0.70;;;9.00;96.30;;;;;;4953503;29;20470;-78
2022/02/24 12:27:57;;;;;;;4.47;1.20;;;8.80;96.30;;;;;;4954481;28;20415;-77
2022/02/24 12:30:26;;;;;;;1.77;0.83;;;8.90;96.30;;;;;;4954628;28;20417;-77
2022/02/24 12:33:01;;;;;;;2.20;1.03;;;8.90;96.30;;;;;;4954644;28;20470;-78
2022/02/24 12:35:29;;;;;;;4.63;1.30;;;9.00;96.30;;;;;;4954751;28;20402;-78
2022/02/24 12:37:55;;;;;;;2.40;1.00;;;9.20;96.30;;;;;;4939330;29;20482;-78
2022/02/24 12:40:32;;;;;;;4.10;1.03;;;9.20;96.30;;;;;;4945182;29;20470;-78
2022/02/24 12:43:00;;;;;;;2.50;1.10;;;9.30;96.30;;;;;;4953498;29;20179;-78
2022/02/24 12:45:27;;;;;;;2.53;1.23;;;9.40;96.30;;;;;;4940469;28;20443;-78
2022/02/24 12:47:55;;;;;;;3.80;1.20;;;9.40;96.30;;;;;;4935141;29;20411;-77
2022/02/24 12:50:23;;;;;;;1.90;1.10;;;9.50;96.30;;;;;;4935013;29;20428;-78
2022/02/24 12:52:49;;;;;;;3.37;0.90;;;9.60;96.30;;;;;;4940981;29;20463;-79
2022/02/24 12:55:17;;;;;;;6.40;1.10;;;9.40;96.30;;;;;;4953259;29;20439;-78
2022/02/24 12:57:43;;;;;;;3.97;1.27;;;9.20;96.30;;;;;;4951809;28;21081;-77
2022/02/24 13:00:11;;;;;;;1.60;0.80;;;9.20;96.30;;;;;;4934819;29;20514;-78
2022/02/24 13:02:39;;;;;;;4.67;1.20;;;9.50;96.30;;;;;;4933842;29;20202;-78
2022/02/24 13:05:05;;;;;;;2.07;1.00;;;9.40;96.30;;;;;;4933733;29;20416;-76
2022/02/24 14:43:38;;;;;;;5.30;1.40;;;8.60;96.30;;;;;;4897887;29;20483;-77
2022/02/24 14:46:04;;;;;;;3.37;1.33;;;8.60;96.30;;;;;;4897950;29;20460;-78
2022/02/24 14:48:34;;;;;;;6.20;1.60;;;8.60;96.30;;;;;;4898285;29;20425;-77
2022/02/24 14:51:00;;;;;;;5.00;2.30;;;8.60;96.30;;;;;;4898094;29;20888;-77
2022/02/24 14:53:26;;;;;;;2.70;1.50;;;8.50;96.30;;;;;;4898213;29;20487;-77
2022/02/24 14:55:55;;;;;;;6.70;2.10;;;8.50;96.30;;;;;;4899502;29;20500;-77
2022/02/24 14:58:21;;;;;;;4.40;2.07;;;8.50;96.30;;;;;;4899328;29;20472;-77
2022/02/24 15:00:46;;;;;;;6.93;2.37;;;8.50;96.30;;;;;;4897836;29;20469;-75
2022/02/24 15:03:12;;;;;;;4.10;1.80;;;8.40;96.30;;;;;;4899089;29;20448;-75
2022/02/24 15:05:38;;;;;;;3.30;1.80;;;8.40;96.30;;;;;;4898946;29;20181;-74
2022/02/24 15:08:10;;;;;;;3.87;2.00;;;8.40;96.30;;;;;;4898554;29;20173;-75
2022/02/24 15:10:37;;;;;;;4.30;2.43;;;8.30;96.30;;;;;;4892954;29;20667;-75
2022/02/24 15:13:02;;;;;;;4.37;2.10;;;8.30;96.30;;;;;;4894771;29;20426;-75
2022/02/24 15:15:28;;;;;;;10.80;2.10;;;8.20;96.30;;;;;;4880972;29;20434;-75
2022/02/24 15:17:54;;;;;;;5.40;1.80;;;8.20;96.30;;;;;;4896664;29;20257;-75
2022/02/24 15:20:21;;;;;;;7.17;2.47;;;8.10;96.30;;;;;;4898256;29;20264;-77
2022/02/24 15:22:49;;;;;;;16.50;10.83;;;8.20;96.30;;;;;;4898730;29;20507;-77
2022/02/24 15:25:15;;;;;;;6.30;2.80;;;8.20;96.30;;;;;;4898667;29;20413;-76
2022/02/24 15:27:41;;;;;;;9.00;5.53;;;8.20;96.30;;;;;;4898571;29;20822;-76
2022/02/24 15:30:08;;;;;;;7.00;5.47;;;8.10;96.30;;;;;;4898428;29;20260;-77
2022/02/24 15:32:34;;;;;;;18.03;9.63;;;8.10;96.30;;;;;;4897085;29;20452;-77
2022/02/24 15:35:00;;;;;;;11.33;5.40;;;8.10;96.30;;;;;;4897157;29;20421;-77
2022/02/24 15:37:26;;;;;;;6.83;2.53;;;8.10;96.30;;;;;;4899206;29;20286;-80
2022/02/24 15:39:52;;;;;;;4.43;2.50;;;8.10;96.30;;;;;;4898679;29;20209;-80
2022/02/24 15:42:18;;;;;;;10.70;3.20;;;8.10;96.30;;;;;;4898153;29;20457;-79
2022/02/24 15:44:43;;;;;;;5.43;1.97;;;8.00;96.30;;;;;;4898041;29;20531;-79
2022/02/24 15:47:09;;;;;;;3.80;2.07;;;8.00;96.30;;;;;;4898286;29;20540;-79
2022/02/24 15:49:34;;;;;;;4.60;2.50;;;8.00;96.30;;;;;;4897875;29;20184;-79
2022/02/24 15:52:00;;;;;;;4.60;2.37;;;8.00;96.30;;;;;;4899741;29;20265;-79
2022/02/24 15:54:25;;;;;;;5.80;3.03;;;8.00;96.30;;;;;;4900411;29;20771;-78
2022/02/24 15:56:51;;;;;;;3.87;1.97;;;8.00;96.30;;;;;;4897638;29;20208;-78
2022/02/24 15:59:16;;;;;;;4.77;2.20;;;8.00;96.30;;;;;;4897792;29;20287;-78
2022/02/24 16:01:42;;;;;;;6.83;2.60;;;8.00;96.30;;;;;;4899556;29;20207;-78
2022/02/24 16:04:08;;;;;;;3.67;1.80;;;8.10;96.30;;;;;;4898396;29;20499;-77
2022/02/24 16:06:33;;;;;;;5.47;2.10;;;8.20;96.30;;;;;;4899746;29;20180;-78
2022/02/24 16:08:59;;;;;;;4.27;2.10;;;8.20;96.30;;;;;;4898477;29;20183;-77
2022/02/24 16:11:27;;;;;;;3.60;1.80;;;8.20;96.30;;;;;;4898692;29;20296;-77
2022/02/24 16:13:53;;;;;;;4.87;1.83;;;8.40;96.30;;;;;;4897301;29;20189;-77
2022/02/24 16:16:19;;;;;;;6.43;3.47;;;8.40;96.30;;;;;;4897063;29;20485;-78
2022/02/24 16:18:44;;;;;;;4.77;3.10;;;8.30;96.30;;;;;;4896708;29;20719;-77
2022/02/24 16:21:10;;;;;;;20.40;11.70;;;8.30;96.30;;;;;;4896845;29;20223;-77
2022/02/24 16:23:35;;;;;;;5.97;3.63;;;8.30;96.30;;;;;;4897999;29;20172;-78
2022/02/24 16:26:02;;;;;;;7.77;3.30;;;8.20;96.30;;;;;;4898047;29;20173;-77
2022/02/24 16:28:27;;;;;;;4.03;2.13;;;8.30;96.30;;;;;;4896344;29;20177;-77
2022/02/24 16:30:53;;;;;;;4.07;2.47;;;8.40;96.30;;;;;;4896149;29;20445;-78
2022/02/24 16:33:18;;;;;;;5.70;2.90;;;8.40;96.30;;;;;;4897526;29;20204;-78
2022/02/24 16:35:44;;;;;;;14.10;7.90;;;8.50;96.30;;;;;;4897468;29;20178;-78
2022/02/24 16:38:09;;;;;;;6.07;3.00;;;8.40;96.30;;;;;;4897984;29;20261;-80
2022/02/24 16:40:36;;;;;;;2.90;2.27;;;8.40;96.30;;;;;;4898900;29;20215;-79
2022/02/24 16:43:02;;;;;;;4.30;2.27;;;8.40;96.30;;;;;;4897486;29;20203;-79
2022/02/24 16:45:27;;;;;;;4.10;2.07;;;8.40;96.30;;;;;;4897323;29;20425;-79
2022/02/24 16:47:53;;;;;;;4.80;3.00;;;8.40;96.30;;;;;;4897645;29;20183;-79
2022/02/24 16:50:18;;;;;;;9.90;2.97;;;8.30;96.30;;;;;;4897578;29;20192;-79
2022/02/24 16:52:46;;;;;;;4.20;2.40;;;8.30;96.30;;;;;;4897305;29;20272;-80
2022/02/24 16:55:11;;;;;;;4.00;2.03;;;8.30;96.30;;;;;;4897246;29;20208;-79
2022/02/24 16:57:37;;;;;;;4.40;2.70;;;8.30;96.30;;;;;;4898417;29;20821;-79
2022/02/24 17:00:07;;;;;;;7.03;3.37;;;8.40;96.30;;;;;;4897143;29;20717;-80
2022/02/24 17:02:33;;;;;;;4.17;2.27;;;8.40;96.30;;;;;;4898608;29;20197;-80
2022/02/24 17:05:00;;;;;;;4.73;2.23;;;8.40;96.30;;;;;;4899042;29;20474;-80
2022/02/24 17:07:30;;;;;;;5.63;3.40;;;8.50;96.30;;;;;;4898767;29;20670;-79
2022/02/24 17:09:59;;;;;;;4.93;2.13;;;8.40;96.30;;;;;;4897303;29;20765;-80
2022/02/24 17:12:24;;;;;;;4.60;1.80;;;8.40;96.30;;;;;;4897026;29;20507;-80
2022/02/24 17:14:50;;;;;;;4.80;2.80;;;8.40;96.30;;;;;;4897051;29;20425;-80
2022/02/24 17:17:18;;;;;;;5.03;2.13;;;8.40;96.30;;;;;;4896570;29;20188;-80
2022/02/24 17:19:45;;;;;;;3.60;1.80;;;8.40;96.30;;;;;;4896440;29;20465;-79
2022/02/24 17:22:12;;;;;;;3.13;1.90;;;8.40;96.30;;;;;;4897916;29;20512;-80
2022/02/24 17:24:37;;;;;;;5.50;2.00;;;8.50;96.30;;;;;;4896263;29;21167;-81
2022/02/24 17:27:03;;;;;;;4.30;1.83;;;8.40;96.30;;;;;;4897851;29;20505;-81
2022/02/24 17:29:28;;;;;;;7.27;3.63;;;8.50;96.30;;;;;;4887500;29;20555;-79
2022/02/24 17:31:54;;;;;;;4.43;2.20;;;8.40;96.30;;;;;;4893371;29;20211;-79
2022/02/24 17:34:20;;;;;;;5.13;2.27;;;8.30;96.30;;;;;;4877646;29;20189;-79
2022/02/24 17:36:46;;;;;;;3.00;1.57;;;8.30;96.30;;;;;;4877018;29;20261;-79
2022/02/24 17:39:12;;;;;;;3.73;1.40;;;8.30;96.30;;;;;;4877552;29;20658;-80
2022/02/24 17:41:39;;;;;;;2.83;1.77;;;8.30;96.30;;;;;;4877304;29;20457;-79
2022/02/24 17:44:05;;;;;;;3.40;2.00;;;8.40;96.30;;;;;;4879012;29;20214;-79
2022/02/24 17:46:30;;;;;;;4.50;2.80;;;8.40;96.30;;;;;;4878878;29;20425;-79
2022/02/24 17:48:56;;;;;;;9.70;3.40;;;8.40;96.30;;;;;;4877606;29;20422;-80
2022/02/24 17:51:22;;;;;;;8.67;3.73;;;8.40;96.30;;;;;;4886932;29;20201;-79
2022/02/24 17:53:49;;;;;;;4.70;2.50;;;8.40;96.30;;;;;;4895262;29;20192;-80
2022/02/24 17:56:15;;;;;;;14.20;3.90;;;8.30;96.30;;;;;;4896970;29;20421;-79
2022/02/24 17:58:41;;;;;;;3.50;2.27;;;8.30;96.30;;;;;;4895933;29;20521;-79
2022/02/24 18:01:06;;;;;;;6.73;2.63;;;8.20;96.30;;;;;;4897225;29;20192;-79
2022/02/24 18:03:32;;;;;;;2.60;1.70;;;8.40;96.30;;;;;;4895957;29;20185;-79
2022/02/24 18:05:57;;;;;;;6.00;2.07;;;8.30;96.30;;;;;;4895868;29;20225;-78
2022/02/24 18:08:23;;;;;;;4.13;1.93;;;8.40;96.30;;;;;;4895974;29;20215;-79
2022/02/24 18:10:52;;;;;;;8.57;1.83;;;8.40;96.30;;;;;;4895926;29;20332;-79
2022/02/24 18:13:19;;;;;;;7.47;2.97;;;8.40;96.30;;;;;;4898913;29;20271;-79
2022/02/24 18:15:45;;;;;;;17.93;8.23;;;8.40;96.30;;;;;;4899279;29;20950;-79
2022/02/24 18:18:12;;;;;;;4.70;2.17;;;8.40;96.30;;;;;;4899113;29;20413;-79
2022/02/24 18:20:38;;;;;;;7.60;4.37;;;8.20;96.30;;;;;;4898969;29;20858;-78
2022/02/24 18:23:04;;;;;;;9.27;5.23;;;8.20;96.30;;;;;;4900577;29;20418;-79
2022/02/24 18:25:30;;;;;;;3.83;2.10;;;8.10;96.30;;;;;;4899383;29;20424;-78
2022/02/24 18:27:56;;;;;;;9.97;7.60;;;8.10;96.30;;;;;;4899102;29;20421;-79
2022/02/24 18:30:22;;;;;;;6.83;1.97;;;8.10;96.30;;;;;;4899325;29;20417;-80
2022/02/24 18:32:47;;;;;;;3.50;1.70;;;8.00;96.30;;;;;;4898082;29;20189;-80
2022/02/24 18:35:13;;;;;;;2.80;1.53;;;8.00;96.30;;;;;;4889610;29;20193;-79
2022/02/24 18:37:39;;;;;;;3.53;2.03;;;8.00;96.30;;;;;;4899105;29;20189;-79
2022/02/24 18:40:06;;;;;;;3.93;1.80;;;7.80;96.30;;;;;;4899200;29;20216;-79
2022/02/24 18:42:32;;;;;;;3.17;2.53;;;7.80;96.30;;;;;;4893223;29;20529;-80
2022/02/24 18:44:57;;;;;;;7.50;1.80;;;7.80;96.30;;;;;;4893624;29;20418;-80
2022/02/24 18:47:23;;;;;;;3.27;1.70;;;7.80;96.30;;;;;;4893618;29;20189;-80
2022/02/24 18:49:49;;;;;;;2.63;1.63;;;7.60;96.30;;;;;;4898623;29;20578;-78
2022/02/24 18:52:14;;;;;;;3.03;2.37;;;7.50;96.30;;;;;;4898281;29;20196;-78
2022/02/24 18:54:40;;;;;;;2.30;1.10;;;7.40;96.30;;;;;;4898557;29;20842;-78
2022/02/24 18:57:05;;;;;;;4.30;1.90;;;7.40;96.30;;;;;;4899595;29;20185;-78
2022/02/24 18:59:31;;;;;;;3.60;2.43;;;7.20;96.30;;;;;;4899482;29;20208;-78
2022/02/24 19:01:57;;;;;;;2.83;2.50;;;7.20;96.30;;;;;;4899751;29;20192;-78
2022/02/24 19:04:22;;;;;;;2.50;1.33;;;7.30;96.30;;;;;;4900804;29;20180;-79
2022/02/24 19:06:47;;;;;;;3.00;1.93;;;7.30;96.30;;;;;;4898970;29;20216;-79
2022/02/24 19:09:13;;;;;;;1.90;1.50;;;7.10;96.30;;;;;;4898165;29;20181;-79
2022/02/24 19:11:41;;;;;;;2.20;1.33;;;7.00;96.30;;;;;;4898284;29;20291;-80
2022/02/24 19:14:11;;;;;;;3.30;1.50;;;6.90;96.30;;;;;;4899501;29;20321;-80
2022/02/24 19:16:38;;;;;;;5.30;2.70;;;7.20;96.30;;;;;;4902020;29;20421;-78
2022/02/24 19:19:05;;;;;;;3.63;1.83;;;7.20;96.30;;;;;;4901752;29;20869;-77
2022/02/24 19:31:52;;;;;;;2.93;2.20;;;7.20;96.30;;;;;;5044835;23;20924;-77
2022/02/24 19:34:17;;;;;;;6.10;3.13;;;7.30;96.30;;;;;;4898524;29;20405;-77
2022/02/24 19:36:44;;;;;;;2.40;1.20;;;7.20;96.30;;;;;;4897400;29;20224;-77
2022/02/24 19:39:09;;;;;;;4.00;1.73;;;7.10;96.30;;;;;;4898281;29;20224;-77
2022/02/24 19:41:37;;;;;;;3.70;1.40;;;7.10;96.30;;;;;;4898471;29;21007;-77
2022/02/24 19:44:03;;;;;;;3.30;1.40;;;7.10;96.30;;;;;;4898469;29;20207;-77
2022/02/24 19:46:29;;;;;;;2.47;1.80;;;7.30;96.30;;;;;;4897308;29;20457;-77
2022/02/24 19:48:54;;;;;;;2.53;1.10;;;7.10;96.30;;;;;;4898226;29;20176;-77
2022/02/24 19:51:20;;;;;;;4.13;1.60;;;7.10;96.30;;;;;;4898287;29;20197;-77
2022/02/24 19:53:46;;;;;;;3.77;2.33;;;7.00;96.30;;;;;;4898179;29;20189;-77
2022/02/24 19:56:11;;;;;;;1.67;1.00;;;7.00;96.30;;;;;;4898275;29;20185;-77
2022/02/24 19:58:37;;;;;;;4.30;1.60;;;6.80;96.30;;;;;;4897899;29;20208;-77
2022/02/24 20:01:03;;;;;;;4.57;1.83;;;6.90;96.30;;;;;;4898041;29;20275;-78
2022/02/24 20:03:29;;;;;;;2.70;1.47;;;7.00;96.30;;;;;;4895284;29;20188;-77
2022/02/24 20:05:56;;;;;;;3.93;1.63;;;6.90;96.30;;;;;;4882755;29;20268;-78
2022/02/24 20:08:21;;;;;;;4.33;1.60;;;7.10;96.30;;;;;;4879530;29;20818;-78
2022/02/24 20:10:50;;;;;;;5.40;2.33;;;7.00;96.30;;;;;;4879351;29;20430;-78
2022/02/24 20:13:17;;;;;;;3.90;1.97;;;6.90;96.30;;;;;;4879424;29;20641;-78
2022/02/24 20:15:43;;;;;;;5.03;1.17;;;7.00;96.30;;;;;;4879368;29;20414;-78
2022/02/24 20:18:12;;;;;;;1.83;1.23;;;7.00;96.30;;;;;;4879560;29;20509;-79
2022/02/24 20:20:39;;;;;;;4.03;1.90;;;7.00;96.30;;;;;;4879165;29;20711;-78
2022/02/24 20:23:07;;;;;;;2.93;1.40;;;6.90;96.30;;;;;;4879186;29;20410;-78
2022/02/24 20:25:33;;;;;;;2.60;1.87;;;7.00;96.30;;;;;;4879151;29;20442;-78
2022/02/24 20:27:59;;;;;;;2.60;1.50;;;7.10;96.30;;;;;;4877502;29;20475;-78
2022/02/24 20:30:25;;;;;;;4.60;1.87;;;7.00;96.30;;;;;;4878904;29;20429;-78
2022/02/24 20:32:51;;;;;;;2.87;1.33;;;6.90;96.30;;;;;;4878980;29;20180;-78
2022/02/24 20:35:17;;;;;;;4.33;1.40;;;7.00;96.30;;;;;;4878882;29;20205;-78
2022/02/24 20:37:43;;;;;;;2.40;1.23;;;7.00;96.30;;;;;;4877901;29;20473;-78
2022/02/24 20:40:09;;;;;;;3.10;1.43;;;7.00;96.30;;;;;;4878857;29;20205;-78
2022/02/24 20:42:35;;;;;;;6.27;1.80;;;7.00;96.30;;;;;;4878694;29;20529;-78
2022/02/24 20:45:00;;;;;;;4.50;1.53;;;7.00;96.30;;;;;;4878851;29;20501;-78
2022/02/24 20:47:26;;;;;;;4.80;1.80;;;7.00;96.30;;;;;;4877402;29;20811;-78
2022/02/24 20:49:51;;;;;;;3.70;1.70;;;7.00;96.30;;;;;;4878760;29;20544;-78
2022/02/24 20:52:17;;;;;;;3.37;2.07;;;7.20;96.30;;;;;;4878475;29;20257;-78
2022/02/24 20:54:42;;;;;;;2.70;1.83;;;7.20;96.30;;;;;;4878723;29;20188;-78
2022/02/24 20:57:08;;;;;;;2.60;1.30;;;7.20;96.30;;;;;;4878616;29;20246;-78
2022/02/24 20:59:35;;;;;;;2.03;0.80;;;7.30;96.30;;;;;;4878400;29;20198;-78
2022/02/24 21:02:01;;;;;;;1.77;1.40;;;7.30;96.30;;;;;;4877216;29;20320;-78
2022/02/24 21:04:26;;;;;;;2.47;0.90;;;7.30;96.30;;;;;;4877411;29;21219;-79
2022/02/24 21:06:52;;;;;;;3.67;1.30;;;7.20;96.30;;;;;;4879659;29;20170;-79